Time;durP1;ratioP1;P1;durP2;ratioP2;P2;SDS_P1;SDS_P2;PMS_P1;PMS_P2;Temp;Humidity;BMP_temperature;BMP_pressure;BME280_temperature;BME280_humidity;BME280_pressure;Samples;Min_cycle;Max_cycle;Signal;HPM_P1;HPM_P2
2022/01/18 00:00:41;;;;;;;3.92;2.47;;;;;;;1.11;100.00;95122.25;5065879;28;20522;-46
2022/01/18 00:03:08;;;;;;;4.60;2.78;;;;;;;1.07;100.00;95110.72;5063354;28;20041;-47
2022/01/18 00:05:35;;;;;;;3.20;1.90;;;;;;;1.13;100.00;95115.19;5064926;28;20040;-46
2022/01/18 00:08:02;;;;;;;4.57;1.98;;;;;;;1.09;100.00;95119.03;5071220;28;20488;-47
2022/01/18 00:10:32;;;;;;;4.57;1.65;;;;;;;1.17;100.00;95111.34;5070408;28;20071;-47
2022/01/18 00:15:55;;;;;;;5.68;1.42;;;;;;;1.13;100.00;95121.13;5066512;28;20045;-48
2022/01/18 00:18:22;;;;;;;2.95;1.50;;;;;;;1.10;100.00;95124.00;5064203;28;20044;-49
2022/01/18 00:21:38;;;;;;;2.40;1.15;;;;;;;1.05;100.00;95128.84;5066573;28;20521;-47
2022/01/18 00:23:51;;;;;;;3.05;1.42;;;;;;;1.01;100.00;95131.88;5061520;28;20056;-48
2022/01/18 00:26:18;;;;;;;2.95;2.05;;;;;;;0.97;100.00;95130.63;5065617;28;20051;-50
2022/01/18 00:28:52;;;;;;;1.92;1.73;;;;;;;0.95;100.00;95136.72;5066064;28;20044;-49
2022/01/18 00:34:31;;;;;;;2.15;1.30;;;;;;;0.78;100.00;95117.19;5059613;28;20155;-46
2022/01/18 00:39:36;;;;;;;2.70;1.83;;;;;;;0.51;100.00;95137.06;5068846;28;20426;-46
2022/01/18 00:42:04;;;;;;;2.47;1.33;;;;;;;0.41;100.00;95141.56;5064564;28;20060;-46
2022/01/18 00:44:31;;;;;;;3.30;1.40;;;;;;;0.39;100.00;95138.34;5063693;28;20042;-47
2022/01/18 00:46:57;;;;;;;2.85;1.70;;;;;;;0.30;100.00;95147.00;5066741;28;20425;-47
2022/01/18 00:49:24;;;;;;;1.85;1.42;;;;;;;0.24;100.00;95153.56;5064911;28;20044;-48
2022/01/18 00:51:55;;;;;;;2.90;1.30;;;;;;;0.11;100.00;95146.34;5067860;28;20048;-47
2022/01/18 00:54:28;;;;;;;2.38;1.70;;;;;;;0.15;100.00;95146.84;5067242;28;20151;-47
2022/01/18 00:56:55;;;;;;;1.25;1.13;;;;;;;0.15;100.00;95163.00;5065006;28;20582;-48
2022/01/18 00:59:22;;;;;;;1.15;1.02;;;;;;;0.15;100.00;95173.25;5066222;28;20043;-48
2022/01/18 01:01:49;;;;;;;4.30;1.70;;;;;;;0.14;100.00;95176.75;5065052;28;20051;-47
2022/01/18 01:04:19;;;;;;;1.92;0.70;;;;;;;0.15;100.00;95193.75;5064627;28;20122;-48
2022/01/18 01:06:46;;;;;;;2.75;1.48;;;;;;;0.12;100.00;95214.53;5064509;28;20036;-46
2022/01/18 01:09:13;;;;;;;2.17;1.27;;;;;;;0.06;100.00;95210.03;5067378;28;20039;-48
2022/01/18 01:11:41;;;;;;;0.95;0.75;;;;;;;0.10;100.00;95200.28;5065010;28;20437;-46
2022/01/18 01:14:13;;;;;;;3.85;1.90;;;;;;;0.10;100.00;95216.44;5069625;28;20063;-47
2022/01/18 01:45:52;;;;;;;0.30;0.30;;;;;;;0.53;81.03;95242.00;5065377;28;20791;-50
2022/01/18 01:48:22;;;;;;;1.15;0.65;;;;;;;0.49;80.41;95236.41;5063581;28;20049;-46
2022/01/18 01:51:02;;;;;;;0.50;0.40;;;;;;;0.45;79.80;95245.38;5063212;28;20048;-48
2022/01/18 01:53:31;;;;;;;0.50;0.45;;;;;;;0.47;73.28;95248.56;5062842;28;20040;-49
2022/01/18 01:55:59;;;;;;;0.60;0.40;;;;;;;0.44;73.47;95248.09;5066573;28;20068;-49
2022/01/18 01:58:27;;;;;;;0.30;0.20;;;;;;;0.38;73.19;95229.03;5064055;28;20036;-52
2022/01/18 02:01:03;;;;;;;1.30;0.43;;;;;;;0.23;73.43;95223.69;5064015;28;20068;-47
2022/01/18 02:03:30;;;;;;;0.80;0.65;;;;;;;0.18;70.47;95208.81;5062009;28;20123;-47
2022/01/18 02:05:57;;;;;;;0.70;0.50;;;;;;;0.16;67.93;95236.34;5072468;28;20071;-47
2022/01/18 02:08:24;;;;;;;0.88;0.32;;;;;;;0.09;67.84;95234.53;5063427;28;20052;-46
2022/01/18 02:10:51;;;;;;;0.57;0.45;;;;;;;-0.01;69.68;95234.69;5065974;28;20498;-47
2022/01/18 02:13:18;;;;;;;0.40;0.30;;;;;;;-0.10;66.58;95235.59;5062360;28;20587;-47
2022/01/18 02:24:11;;;;;;;0.52;0.38;;;;;;;-0.34;63.93;95257.59;5068718;28;20048;-46
2022/01/18 02:26:38;;;;;;;0.28;0.13;;;;;;;-0.40;61.20;95276.09;5062772;28;20473;-48
2022/01/18 02:29:06;;;;;;;0.10;0.10;;;;;;;-0.46;60.15;95277.50;5063173;28;20583;-47
2022/01/18 02:31:35;;;;;;;3.00;0.40;;;;;;;-0.45;61.21;95293.66;5065583;28;20040;-45
2022/01/18 02:34:04;;;;;;;2.90;0.75;;;;;;;-0.55;62.13;95277.63;5062989;28;20040;-47
2022/01/18 02:36:32;;;;;;;2.03;0.30;;;;;;;-0.59;61.54;95298.38;5066526;28;20530;-47
2022/01/18 02:38:59;;;;;;;0.60;0.20;;;;;;;-0.64;59.08;95300.59;5061979;28;20051;-48
2022/01/18 02:41:30;;;;;;;1.00;0.80;;;;;;;-0.73;61.60;95301.50;5062231;28;20063;-50
2022/01/18 02:44:04;;;;;;;0.63;0.40;;;;;;;-0.84;64.95;95325.56;5062387;28;20072;-48
2022/01/18 02:46:31;;;;;;;2.10;0.67;;;;;;;-0.93;62.24;95346.91;5062627;28;20510;-47
2022/01/18 02:49:00;;;;;;;0.98;0.38;;;;;;;-0.94;61.84;95349.59;5066631;28;20093;-45
2022/01/18 02:51:27;;;;;;;2.65;0.50;;;;;;;-1.01;59.57;95350.19;5065212;28;20048;-46
2022/01/18 02:54:17;;;;;;;0.65;0.45;;;;;;;-0.93;56.86;95348.66;5061926;28;20036;-46
2022/01/18 02:56:53;;;;;;;0.45;0.35;;;;;;;-0.92;57.15;95352.81;5069380;28;20041;-46
2022/01/18 02:59:32;;;;;;;2.20;0.32;;;;;;;-0.91;56.79;95360.34;5062612;28;20051;-47
2022/01/18 03:04:49;;;;;;;0.63;0.22;;;;;;;-0.77;52.67;95376.94;5065859;28;20111;-46
2022/01/18 03:07:16;;;;;;;1.20;0.40;;;;;;;-0.74;52.15;95374.06;5061678;28;20528;-47
2022/01/18 03:09:43;;;;;;;1.38;0.63;;;;;;;-0.74;52.98;95402.19;5065369;28;20054;-47
2022/01/18 03:12:10;;;;;;;0.63;0.57;;;;;;;-0.91;55.88;95411.47;5061978;28;20037;-46
2022/01/18 03:14:38;;;;;;;3.40;2.58;;;;;;;-1.21;60.56;95410.06;5060736;28;20049;-46
2022/01/18 03:17:06;;;;;;;2.10;1.45;;;;;;;-1.22;66.73;95423.81;5061963;28;20144;-48
2022/01/18 03:19:34;;;;;;;0.95;0.73;;;;;;;-1.55;73.00;95429.34;5061910;28;20048;-49
2022/01/18 03:22:02;;;;;;;14.18;5.78;;;;;;;-1.72;76.74;95412.19;5071636;28;20052;-46
2022/01/18 03:29:44;;;;;;;1.88;1.23;;;;;;;-1.93;84.63;95445.56;5061510;28;20501;-47
2022/01/18 03:32:11;;;;;;;0.82;0.65;;;;;;;-2.07;85.20;95434.06;5065512;28;20041;-48
2022/01/18 03:34:38;;;;;;;1.35;1.00;;;;;;;-2.10;85.08;95438.66;5064772;28;20425;-47
2022/01/18 03:37:05;;;;;;;0.80;0.60;;;;;;;-2.15;81.11;95457.72;5062700;28;20114;-47
2022/01/18 03:39:32;;;;;;;1.38;0.75;;;;;;;-2.08;82.27;95445.22;5071404;28;20048;-47
2022/01/18 03:42:28;;;;;;;1.30;1.02;;;;;;;-2.17;84.38;95444.28;5065587;28;20418;-47
2022/01/18 03:44:48;;;;;;;1.90;0.77;;;;;;;-2.37;88.28;95437.59;5070813;28;20075;-47
2022/01/18 03:47:19;;;;;;;1.65;0.63;;;;;;;-2.44;89.45;95449.28;5065057;28;20076;-48
2022/01/18 03:49:45;;;;;;;1.67;0.73;;;;;;;-2.56;91.11;95449.41;5065733;28;20743;-49
2022/01/18 03:52:12;;;;;;;2.30;1.13;;;;;;;-2.54;90.65;95465.41;5065878;28;20414;-48
2022/01/18 03:54:43;;;;;;;3.63;0.90;;;;;;;-2.58;91.21;95471.69;5064572;28;20041;-48
2022/01/18 03:57:10;;;;;;;2.72;1.15;;;;;;;-2.75;91.37;95469.84;5069508;28;20043;-47
2022/01/18 03:59:37;;;;;;;1.08;0.50;;;;;;;-2.76;92.09;95479.19;5065783;28;20471;-46
2022/01/18 04:02:04;;;;;;;1.30;0.68;;;;;;;-2.75;92.18;95495.31;5072172;28;20052;-49
2022/01/18 04:04:32;;;;;;;2.60;1.13;;;;;;;-2.77;92.24;95500.56;5066612;28;20044;-49
2022/01/18 04:06:58;;;;;;;1.35;0.85;;;;;;;-2.78;91.87;95503.22;5065299;28;20045;-47
2022/01/18 04:09:25;;;;;;;1.85;0.95;;;;;;;-2.86;92.44;95513.25;5063899;28;22861;-48
2022/01/18 04:11:53;;;;;;;3.38;1.33;;;;;;;-2.91;92.88;95511.94;5065168;28;20430;-46
2022/01/18 04:14:20;;;;;;;5.93;2.17;;;;;;;-2.95;94.05;95513.13;5063436;28;20107;-47
2022/01/18 04:17:03;;;;;;;1.05;0.73;;;;;;;-2.99;93.81;95527.09;5065135;28;20044;-51
2022/01/18 04:27:34;;;;;;;1.83;1.35;;;;;;;-2.89;90.31;95566.13;5069906;28;20078;-51
2022/01/18 04:30:02;;;;;;;8.00;2.17;;;;;;;-2.95;88.71;95546.28;5065529;28;20048;-49
2022/01/18 04:32:29;;;;;;;5.82;1.92;;;;;;;-2.79;88.13;95565.34;5065205;28;20426;-48
2022/01/18 04:34:57;;;;;;;2.05;1.35;;;;;;;-2.78;87.80;95577.97;5065622;28;20036;-50
2022/01/18 04:37:23;;;;;;;3.45;1.23;;;;;;;-2.77;87.08;95569.41;5064119;28;20043;-49
2022/01/18 04:39:50;;;;;;;4.32;2.38;;;;;;;-2.81;86.85;95572.31;5064378;28;20048;-48
2022/01/18 04:50:30;;;;;;;3.15;1.50;;;;;;;-2.76;84.98;95595.69;5062369;28;20060;-50
2022/01/18 04:52:57;;;;;;;3.30;1.73;;;;;;;-2.74;85.28;95598.91;5064283;28;20056;-47
2022/01/18 04:55:30;;;;;;;1.20;0.70;;;;;;;-2.72;84.89;95592.78;5065244;28;20052;-47
2022/01/18 04:57:58;;;;;;;1.60;1.23;;;;;;;-2.66;84.33;95606.75;5064158;28;20044;-48
2022/01/18 05:00:26;;;;;;;1.50;1.23;;;;;;;-2.71;84.63;95613.97;5064574;28;20494;-48
2022/01/18 05:02:53;;;;;;;3.78;1.77;;;;;;;-2.74;84.72;95606.56;5066390;28;20040;-48
2022/01/18 05:05:29;;;;;;;2.47;1.50;;;;;;;-2.78;85.34;95610.31;5069257;28;20068;-49
2022/01/18 05:08:00;;;;;;;2.60;1.27;;;;;;;-2.76;85.22;95611.00;5067554;28;20043;-49
2022/01/18 05:10:29;;;;;;;3.05;1.45;;;;;;;-2.91;85.98;95613.88;5064530;28;20071;-49
2022/01/18 05:12:58;;;;;;;1.85;0.90;;;;;;;-2.85;85.35;95627.06;5064891;28;20040;-51
2022/01/18 05:23:30;;;;;;;4.05;2.72;;;;;;;-2.83;85.41;95650.69;5030441;28;20475;-49
2022/01/18 05:26:00;;;;;;;4.38;1.40;;;;;;;-2.92;85.51;95662.44;5062533;28;20040;-48
2022/01/18 05:28:27;;;;;;;6.28;3.03;;;;;;;-2.83;84.73;95656.59;5064350;28;20383;-48
2022/01/18 05:30:54;;;;;;;1.65;0.95;;;;;;;-2.86;84.22;95661.13;5064649;28;20043;-48
2022/01/18 05:33:22;;;;;;;4.40;1.80;;;;;;;-2.81;83.69;95677.69;5067138;28;20055;-52
2022/01/18 05:35:52;;;;;;;6.88;3.90;;;;;;;-2.84;84.01;95669.47;5063870;28;20066;-49
2022/01/18 05:38:19;;;;;;;9.65;4.32;;;;;;;-2.83;83.92;95697.38;5062724;28;20032;-50
2022/01/18 05:40:46;;;;;;;5.45;2.67;;;;;;;-2.79;83.61;95708.13;5063403;28;20044;-46
2022/01/18 05:43:13;;;;;;;5.78;1.48;;;;;;;-2.82;83.78;95710.94;5063977;28;20044;-48
2022/01/18 05:45:39;;;;;;;3.85;1.92;;;;;;;-2.88;84.27;95710.53;5069121;28;20429;-48
2022/01/18 05:48:06;;;;;;;3.97;2.42;;;;;;;-2.86;84.18;95702.75;5062818;28;20037;-49
2022/01/18 05:50:35;;;;;;;2.90;2.20;;;;;;;-2.79;84.13;95703.03;5062994;28;20052;-51
2022/01/18 05:53:01;;;;;;;2.25;1.13;;;;;;;-2.82;84.61;95703.31;5067575;28;20402;-49
2022/01/18 05:55:29;;;;;;;2.92;1.05;;;;;;;-2.81;83.72;95704.91;5071111;28;20097;-49
2022/01/18 05:57:55;;;;;;;4.13;1.50;;;;;;;-2.90;84.64;95709.84;5064498;28;20047;-50
2022/01/18 06:00:24;;;;;;;13.18;2.40;;;;;;;-2.92;84.72;95704.06;5061668;28;20045;-51
2022/01/18 06:08:15;;;;;;;6.55;1.83;;;;;;;-2.76;85.16;95739.28;5064133;28;20094;-48
2022/01/18 06:10:42;;;;;;;2.97;2.05;;;;;;;-2.70;85.61;95727.81;5065345;28;20044;-49
2022/01/18 06:13:09;;;;;;;5.07;1.55;;;;;;;-2.68;84.83;95736.13;5063155;28;20068;-49
2022/01/18 06:15:36;;;;;;;6.20;2.33;;;;;;;-2.61;85.21;95739.78;5055233;28;20055;-49
2022/01/18 06:18:03;;;;;;;5.82;3.50;;;;;;;-2.59;85.45;95737.91;5058631;28;20068;-49
2022/01/18 06:20:30;;;;;;;4.00;2.63;;;;;;;-2.59;85.82;95745.56;5057523;28;20123;-48
2022/01/18 06:22:57;;;;;;;2.67;1.23;;;;;;;-2.55;86.12;95746.13;5060614;28;20040;-49
2022/01/18 06:25:28;;;;;;;4.85;2.58;;;;;;;-2.65;86.49;95727.41;5065617;28;20044;-47
2022/01/18 06:27:55;;;;;;;5.28;3.53;;;;;;;-2.54;86.61;95738.34;5060115;28;20464;-48
2022/01/18 06:30:23;;;;;;;3.83;2.67;;;;;;;-2.53;86.95;95745.03;5057210;28;20518;-54
2022/01/18 06:32:50;;;;;;;5.68;2.78;;;;;;;-2.45;86.79;95766.56;5056484;28;20446;-48
2022/01/18 06:35:17;;;;;;;3.80;2.63;;;;;;;-2.42;86.62;95761.22;5057065;28;20068;-49
2022/01/18 06:37:45;;;;;;;4.18;2.08;;;;;;;-2.39;87.23;95777.06;5060760;28;20063;-48
2022/01/18 06:40:13;;;;;;;3.80;2.55;;;;;;;-2.37;87.09;95776.94;5062956;28;20041;-48
2022/01/18 06:42:41;;;;;;;8.70;4.68;;;;;;;-2.35;87.08;95777.63;5056363;28;20522;-49
2022/01/18 06:45:09;;;;;;;21.42;7.82;;;;;;;-2.32;86.84;95785.03;5061011;28;20052;-49
2022/01/18 06:47:37;;;;;;;37.88;11.82;;;;;;;-2.28;86.77;95768.53;5064933;28;20044;-46
2022/01/18 06:50:06;;;;;;;54.10;17.23;;;;;;;-2.22;87.17;95783.31;5063381;28;20036;-49
2022/01/18 06:52:33;;;;;;;16.83;7.07;;;;;;;-2.21;86.31;95779.84;5060262;28;20051;-51
2022/01/18 06:55:01;;;;;;;31.00;9.02;;;;;;;-2.24;85.45;95774.97;5062625;28;20056;-46
2022/01/18 06:57:28;;;;;;;63.22;17.58;;;;;;;-2.25;85.90;95783.59;5063599;28;20055;-49
2022/01/18 06:59:55;;;;;;;21.30;6.28;;;;;;;-2.27;86.26;95782.88;5062615;28;20048;-47
2022/01/18 07:02:23;;;;;;;9.75;4.63;;;;;;;-2.27;86.20;95790.53;5067870;28;20040;-48
2022/01/18 07:04:50;;;;;;;7.70;3.38;;;;;;;-2.22;86.39;95795.28;5058749;28;20049;-48
2022/01/18 07:07:18;;;;;;;13.38;3.83;;;;;;;-2.24;86.91;95800.50;5058006;28;20430;-47
2022/01/18 07:09:45;;;;;;;6.53;3.85;;;;;;;-2.22;87.11;95803.72;5056373;28;20055;-48
2022/01/18 07:12:12;;;;;;;7.30;2.58;;;;;;;-2.18;87.27;95804.28;5055822;28;20047;-48
2022/01/18 07:14:40;;;;;;;11.05;6.00;;;;;;;-2.13;87.75;95808.06;5063364;28;20128;-47
2022/01/18 07:17:08;;;;;;;14.90;4.43;;;;;;;-2.09;87.84;95803.50;5062950;28;20119;-48
2022/01/18 07:19:36;;;;;;;7.55;4.05;;;;;;;-2.05;87.65;95804.06;5059263;28;20033;-49
2022/01/18 07:22:04;;;;;;;8.25;3.60;;;;;;;-2.01;87.73;95813.91;5066220;28;20047;-48
2022/01/18 07:24:41;;;;;;;5.13;3.00;;;;;;;-2.00;87.59;95818.09;5061894;28;20037;-48
2022/01/18 07:27:10;;;;;;;4.10;3.00;;;;;;;-1.96;88.18;95828.84;5060175;28;20060;-49
2022/01/18 07:29:38;;;;;;;13.60;3.97;;;;;;;-1.84;88.76;95832.91;5059599;28;20397;-49
2022/01/18 07:32:06;;;;;;;6.03;3.78;;;;;;;-1.68;88.33;95841.81;5060571;28;20068;-50
2022/01/18 07:34:34;;;;;;;9.52;5.55;;;;;;;-1.57;87.20;95851.94;5063851;28;20047;-50
2022/01/18 07:37:02;;;;;;;5.57;3.17;;;;;;;-1.54;86.90;95838.91;5059036;28;20048;-46
2022/01/18 07:39:29;;;;;;;4.00;2.22;;;;;;;-1.33;87.04;95850.78;5061873;28;20044;-48
2022/01/18 07:41:56;;;;;;;4.97;2.33;;;;;;;-1.24;85.79;95838.03;5064108;28;20063;-50
2022/01/18 07:44:23;;;;;;;8.13;4.03;;;;;;;-1.17;86.69;95838.28;5060350;28;20052;-52
2022/01/18 07:46:49;;;;;;;7.15;3.55;;;;;;;-1.08;86.12;95865.63;5062995;28;20056;-52
2022/01/18 07:49:16;;;;;;;5.38;2.70;;;;;;;-1.08;85.08;95845.19;5059149;28;20038;-49
2022/01/18 07:51:43;;;;;;;8.20;2.72;;;;;;;-0.93;86.17;95857.56;5060462;28;20829;-50
2022/01/18 07:54:10;;;;;;;3.55;2.20;;;;;;;-0.94;85.00;95856.75;5060585;28;20051;-49
2022/01/18 07:56:41;;;;;;;6.95;2.17;;;;;;;-0.89;85.65;95853.78;5061949;28;20438;-49
2022/01/18 07:59:12;;;;;;;8.15;3.95;;;;;;;-0.84;85.52;95861.88;5061377;28;20068;-50
2022/01/18 08:01:42;;;;;;;8.32;3.75;;;;;;;-0.77;85.11;95862.94;5065637;28;20048;-48
2022/01/18 08:04:10;;;;;;;11.93;4.57;;;;;;;-0.82;85.39;95860.78;5072575;28;20044;-49
2022/01/18 08:06:36;;;;;;;2.75;2.15;;;;;;;-0.72;85.06;95860.81;5076650;28;20040;-48
2022/01/18 08:09:03;;;;;;;4.35;2.78;;;;;;;-0.78;85.24;95858.75;5074022;28;20036;-48
2022/01/18 08:11:30;;;;;;;3.55;2.17;;;;;;;-0.68;85.98;95866.44;5065502;28;20117;-50
2022/01/18 08:13:59;;;;;;;8.75;5.28;;;;;;;-0.63;85.87;95867.66;5066438;28;20040;-49
2022/01/18 08:19:00;;;;;;;3.10;1.65;;;;;;;-0.61;84.17;95888.00;5063915;28;20056;-51
2022/01/18 08:21:33;;;;;;;5.65;2.92;;;;;;;-0.52;86.41;95881.22;5059429;28;20041;-49
2022/01/18 08:24:00;;;;;;;3.05;1.73;;;;;;;-0.54;85.97;95857.53;5061125;28;20071;-48
2022/01/18 08:26:27;;;;;;;2.58;1.48;;;;;;;-0.57;85.47;95879.09;5058952;28;20425;-48
2022/01/18 08:28:53;;;;;;;7.47;3.25;;;;;;;-0.53;85.21;95895.00;5063575;28;20098;-49
2022/01/18 08:31:20;;;;;;;4.93;2.78;;;;;;;-0.49;85.00;95875.84;5063044;28;20044;-46
2022/01/18 08:33:47;;;;;;;4.28;2.72;;;;;;;-0.45;83.98;95897.66;5069096;28;20120;-48
2022/01/18 08:36:14;;;;;;;4.35;2.88;;;;;;;-0.46;83.56;95911.41;5059512;28;20048;-48
2022/01/18 08:38:41;;;;;;;2.45;1.65;;;;;;;-0.44;83.31;95905.22;5059501;28;20045;-48
2022/01/18 08:41:08;;;;;;;3.60;2.20;;;;;;;-0.49;83.63;95896.31;5058254;28;20044;-48
2022/01/18 08:43:36;;;;;;;3.80;1.92;;;;;;;-0.41;83.80;95904.16;5062962;28;20700;-49
2022/01/18 08:46:04;;;;;;;2.78;1.50;;;;;;;-0.45;84.34;95907.91;5062024;28;20516;-48
2022/01/18 08:48:31;;;;;;;3.28;1.55;;;;;;;-0.42;84.53;95897.41;5065093;28;20207;-50
2022/01/18 08:50:59;;;;;;;2.22;1.15;;;;;;;-0.37;85.05;95915.72;5064878;28;20044;-48
2022/01/18 08:53:27;;;;;;;2.75;1.85;;;;;;;-0.44;84.63;95909.53;5061623;28;20037;-54
2022/01/18 08:55:54;;;;;;;3.70;2.13;;;;;;;-0.29;84.87;95897.94;5056202;28;20493;-49
2022/01/18 08:58:26;;;;;;;2.38;1.65;;;;;;;-0.28;83.68;95919.22;5062537;28;20044;-50
2022/01/18 09:00:54;;;;;;;2.88;1.83;;;;;;;-0.51;81.91;95887.97;5070600;28;20513;-48
2022/01/18 09:03:21;;;;;;;2.20;1.25;;;;;;;-0.32;82.09;95903.31;5062488;28;20121;-50
2022/01/18 09:05:50;;;;;;;2.50;1.70;;;;;;;-0.23;82.59;95905.06;5061243;28;20041;-49
2022/01/18 09:08:19;;;;;;;6.30;2.20;;;;;;;-0.10;83.98;95909.09;5059134;28;20043;-48
2022/01/18 09:10:47;;;;;;;2.65;1.55;;;;;;;-0.20;80.45;95937.25;5065437;28;20134;-51
2022/01/18 09:13:17;;;;;;;3.97;1.50;;;;;;;-0.12;83.21;95928.91;5064384;28;20525;-48
2022/01/18 09:15:44;;;;;;;1.52;1.15;;;;;;;-0.13;81.16;95937.53;5061139;28;20057;-49
2022/01/18 09:18:11;;;;;;;2.80;1.85;;;;;;;-0.15;81.87;95919.72;5063364;28;20456;-50
2022/01/18 09:20:39;;;;;;;2.78;1.65;;;;;;;-0.11;80.30;95935.63;5066898;28;20044;-48
2022/01/18 09:23:06;;;;;;;4.70;1.67;;;;;;;0.02;82.59;95925.91;5064782;28;20128;-49
2022/01/18 09:25:34;;;;;;;4.80;2.15;;;;;;;0.05;80.57;95930.75;5064766;28;20525;-48
2022/01/18 09:28:01;;;;;;;2.80;1.80;;;;;;;0.07;80.94;95923.72;5062210;28;20048;-49
2022/01/18 09:30:30;;;;;;;3.67;2.03;;;;;;;0.06;80.71;95917.00;5055864;28;20079;-50
2022/01/18 09:32:59;;;;;;;4.60;2.47;;;;;;;-0.03;79.66;95908.38;5060543;28;20050;-46
2022/01/18 09:35:27;;;;;;;3.90;1.85;;;;;;;0.05;81.08;95915.38;5059498;28;20043;-48
2022/01/18 09:37:54;;;;;;;3.70;1.65;;;;;;;0.09;80.24;95916.72;5058155;28;20044;-48
2022/01/18 09:40:23;;;;;;;6.65;3.25;;;;;;;0.21;79.70;95924.25;5057725;28;20041;-46
2022/01/18 09:42:55;;;;;;;4.68;1.88;;;;;;;0.26;79.86;95911.81;5059130;28;20118;-48
2022/01/18 09:45:23;;;;;;;5.72;3.47;;;;;;;0.37;81.06;95898.81;5059825;28;20099;-47
2022/01/18 09:47:52;;;;;;;3.60;1.92;;;;;;;0.51;81.24;95911.19;5058068;28;20037;-46
2022/01/18 09:50:23;;;;;;;1.35;0.90;;;;;;;0.53;79.91;95903.34;5057114;28;20051;-46
2022/01/18 09:52:54;;;;;;;6.90;2.63;;;;;;;0.64;80.57;95899.78;5058701;28;20466;-48
2022/01/18 09:55:24;;;;;;;2.75;1.50;;;;;;;0.51;78.48;95865.03;5058849;28;20059;-48
2022/01/18 09:57:52;;;;;;;1.80;1.38;;;;;;;0.50;76.88;95883.13;5063326;28;20040;-48
2022/01/18 10:00:21;;;;;;;2.92;1.33;;;;;;;0.54;76.17;95880.13;5062993;28;20130;-48
2022/01/18 10:02:48;;;;;;;1.98;1.35;;;;;;;0.21;75.79;95862.75;5058369;28;20586;-49
2022/01/18 10:05:30;;;;;;;1.88;1.58;;;;;;;0.47;75.46;95889.34;5057754;28;20055;-48
2022/01/18 10:08:08;;;;;;;1.75;0.90;;;;;;;0.45;75.96;95875.03;5060324;28;20048;-49
2022/01/18 10:10:50;;;;;;;3.47;1.30;;;;;;;0.51;76.90;95880.41;5061505;28;20052;-48
2022/01/18 10:13:26;;;;;;;4.55;1.88;;;;;;;0.65;78.13;95883.44;5061788;28;20064;-48
2022/01/18 10:16:11;;;;;;;1.55;1.33;;;;;;;0.54;76.66;95880.13;5062902;28;20402;-49
2022/01/18 10:18:43;;;;;;;2.28;1.77;;;;;;;0.62;76.10;95881.19;5063745;28;20107;-50
2022/01/18 10:21:12;;;;;;;1.77;1.65;;;;;;;0.49;73.99;95902.81;5063699;28;20036;-48
2022/01/18 10:23:39;;;;;;;2.45;1.33;;;;;;;0.55;75.53;95871.47;5062820;28;20037;-50
2022/01/18 10:26:25;;;;;;;1.98;1.52;;;;;;;0.69;76.45;95882.22;5064922;28;20048;-49
2022/01/18 10:29:04;;;;;;;3.15;1.85;;;;;;;1.00;77.87;95899.84;5062793;28;20036;-49
2022/01/18 10:31:39;;;;;;;3.67;2.00;;;;;;;1.04;77.76;95885.78;5062009;28;20048;-49
2022/01/18 10:34:13;;;;;;;3.78;1.63;;;;;;;1.10;77.88;95890.34;5061053;28;20044;-50
2022/01/18 10:36:52;;;;;;;2.95;2.15;;;;;;;0.83;75.36;95904.81;5060962;28;20052;-48
2022/01/18 10:39:21;;;;;;;2.95;2.22;;;;;;;0.59;75.93;95886.59;5059156;28;20421;-48
2022/01/18 10:41:49;;;;;;;2.97;1.52;;;;;;;0.78;77.07;95876.22;5069212;28;20433;-48
2022/01/18 10:44:17;;;;;;;1.38;1.23;;;;;;;0.66;74.62;95873.03;5063343;28;20041;-50
2022/01/18 10:46:48;;;;;;;3.85;2.95;;;;;;;0.52;75.23;95892.28;5058795;28;20040;-49
2022/01/18 10:49:40;;;;;;;3.28;1.85;;;;;;;0.51;74.78;95895.78;5058652;28;20041;-48
2022/01/18 10:52:15;;;;;;;7.25;1.98;;;;;;;0.51;76.39;95879.63;5058566;28;20049;-51
2022/01/18 10:54:45;;;;;;;3.38;2.45;;;;;;;0.56;74.09;95891.06;5059072;28;20041;-49
2022/01/18 10:57:17;;;;;;;1.98;1.40;;;;;;;0.55;75.68;95880.94;5060334;28;20098;-53
2022/01/18 10:59:44;;;;;;;3.63;1.80;;;;;;;0.57;73.43;95869.56;5064398;28;20553;-49
2022/01/18 11:02:17;;;;;;;3.88;1.75;;;;;;;0.67;74.25;95858.50;5061028;28;20459;-49
2022/01/18 11:04:55;;;;;;;2.20;1.05;;;;;;;0.68;72.64;95834.44;5052627;28;20052;-51
2022/01/18 11:07:25;;;;;;;3.72;2.05;;;;;;;0.79;73.18;95867.56;5059273;28;20132;-49
2022/01/18 11:09:54;;;;;;;3.15;1.83;;;;;;;0.86;73.05;95853.22;5061234;28;20052;-50
2022/01/18 11:12:25;;;;;;;2.67;1.63;;;;;;;0.97;76.19;95905.28;5061697;28;20071;-50
2022/01/18 11:15:03;;;;;;;3.40;1.80;;;;;;;0.76;74.09;95883.25;5065339;28;20167;-52
2022/01/18 11:17:38;;;;;;;10.13;2.40;;;;;;;0.77;76.27;95864.34;5056886;28;20425;-49
2022/01/18 11:20:06;;;;;;;3.35;2.22;;;;;;;0.82;76.38;95859.59;5062868;28;20059;-49
2022/01/18 11:22:34;;;;;;;5.90;2.22;;;;;;;0.80;75.17;95858.94;5061767;28;20383;-49
2022/01/18 11:25:04;;;;;;;2.05;1.52;;;;;;;0.87;76.44;95849.72;5061985;28;20044;-50
2022/01/18 11:27:34;;;;;;;3.05;1.98;;;;;;;0.86;75.07;95855.78;5061678;28;20044;-51
2022/01/18 11:30:06;;;;;;;2.53;1.63;;;;;;;0.95;75.87;95862.63;5054590;28;20529;-49
2022/01/18 11:32:33;;;;;;;2.20;1.27;;;;;;;0.94;73.32;95861.00;5054305;28;20502;-47
2022/01/18 11:35:19;;;;;;;2.03;1.63;;;;;;;1.01;73.03;95860.41;5061127;28;20415;-49
2022/01/18 11:38:11;;;;;;;4.95;1.50;;;;;;;0.91;72.96;95861.28;5059359;28;20044;-48
2022/01/18 11:40:47;;;;;;;2.45;1.77;;;;;;;0.87;71.70;95859.97;5060967;28;20456;-48
2022/01/18 11:43:31;;;;;;;6.78;2.50;;;;;;;0.89;71.23;95867.53;5059828;28;20131;-50
2022/01/18 11:45:58;;;;;;;3.67;1.55;;;;;;;0.90;71.13;95887.91;5060333;28;20032;-49
2022/01/18 11:48:26;;;;;;;1.80;1.40;;;;;;;0.87;70.86;95859.16;5063384;28;20097;-51
2022/01/18 11:51:05;;;;;;;4.18;2.03;;;;;;;1.02;71.50;95867.16;5060752;28;20044;-49
2022/01/18 11:56:15;;;;;;;1.08;1.00;;;;;;;0.86;69.63;95842.94;5058230;28;20067;-50
2022/01/18 11:59:03;;;;;;;1.95;1.30;;;;;;;0.91;70.59;95851.03;5059496;28;20425;-48
2022/01/18 12:01:54;;;;;;;3.10;1.08;;;;;;;0.85;70.10;95866.22;5061198;28;20044;-52
2022/01/18 12:07:07;;;;;;;4.50;1.65;;;;;;;0.70;68.40;95837.66;5056006;28;20129;-49
2022/01/18 12:09:42;;;;;;;2.78;2.25;;;;;;;0.75;68.49;95836.28;5060222;28;20045;-48
2022/01/18 12:12:41;;;;;;;3.60;2.78;;;;;;;0.93;69.10;95833.72;5059326;28;20494;-49
2022/01/18 12:15:21;;;;;;;1.73;1.02;;;;;;;0.86;70.20;95837.03;5060300;28;20054;-53
2022/01/18 12:17:59;;;;;;;5.60;1.73;;;;;;;0.76;67.22;95837.09;5056844;28;20044;-50
2022/01/18 12:20:35;;;;;;;4.32;1.75;;;;;;;0.80;68.48;95822.22;5057371;28;20045;-49
2022/01/18 12:23:13;;;;;;;1.50;1.20;;;;;;;0.87;68.99;95852.28;5063557;28;20054;-48
2022/01/18 12:26:00;;;;;;;2.60;1.15;;;;;;;0.86;69.20;95840.38;5060262;28;20036;-48
2022/01/18 12:34:27;;;;;;;3.83;1.67;;;;;;;0.97;67.65;95846.25;5056345;28;19931;-48
2022/01/18 12:37:24;;;;;;;1.45;1.20;;;;;;;0.86;68.36;95863.47;5062502;28;20128;-48
2022/01/18 12:39:54;;;;;;;1.98;1.13;;;;;;;0.87;67.05;95870.22;5061749;28;20068;-47
2022/01/18 12:45:13;;;;;;;3.45;2.30;;;;;;;0.99;65.83;95893.09;5058297;28;20040;-52
2022/01/18 12:47:59;;;;;;;6.13;2.72;;;;;;;0.92;65.19;95898.81;5061794;28;20036;-49
2022/01/18 12:50:29;;;;;;;4.78;2.10;;;;;;;0.91;65.94;95871.53;5059491;28;20040;-49
2022/01/18 12:53:00;;;;;;;6.30;2.75;;;;;;;1.24;66.53;95866.75;5058765;28;20123;-51
2022/01/18 12:55:45;;;;;;;6.15;2.80;;;;;;;1.36;66.68;95863.94;5060275;28;20045;-49
2022/01/18 12:58:20;;;;;;;5.63;3.28;;;;;;;1.18;63.55;95857.03;5060127;28;20124;-48
2022/01/18 13:00:48;;;;;;;2.22;1.83;;;;;;;1.25;63.50;95883.75;5063455;28;20051;-48
2022/01/18 13:03:17;;;;;;;2.97;1.80;;;;;;;1.14;63.79;95856.53;5059153;28;20848;-46
2022/01/18 13:05:46;;;;;;;4.32;2.67;;;;;;;1.23;64.49;95866.88;5060821;28;20041;-48
2022/01/18 13:08:15;;;;;;;3.00;1.63;;;;;;;1.26;62.40;95869.97;5056123;28;20044;-49
2022/01/18 13:10:48;;;;;;;4.22;1.67;;;;;;;1.22;63.09;95871.19;5061534;28;20037;-48
2022/01/18 13:13:19;;;;;;;3.67;1.35;;;;;;;1.14;63.46;95871.13;5062544;28;20044;-50
2022/01/18 13:16:03;;;;;;;1.77;1.00;;;;;;;1.19;63.90;95863.81;5056433;28;20486;-51
2022/01/18 13:26:49;;;;;;;3.58;1.50;;;;;;;1.56;63.31;95852.53;5058562;28;20122;-51
2022/01/18 13:29:26;;;;;;;8.68;1.60;;;;;;;1.66;61.96;95876.38;5057712;28;20788;-48
2022/01/18 13:32:29;;;;;;;1.38;0.93;;;;;;;1.47;61.62;95853.44;5056142;28;20040;-46
2022/01/18 13:34:58;;;;;;;1.42;1.20;;;;;;;1.54;62.93;95851.88;5057084;28;20064;-50
2022/01/18 13:37:30;;;;;;;3.15;1.77;;;;;;;1.68;61.99;95847.97;5062125;28;20048;-51
2022/01/18 13:40:07;;;;;;;2.35;1.55;;;;;;;1.61;62.02;95863.16;5058823;28;20037;-51